CheckWX is a tool to help pilots better visualize weather data.  It is not intended as a substitute for an official pre-flight weather briefing.

21:44:01 UTC

KELM TAF
Elmira / Corning Regional Airport
Elmira/Corning, New York, USA
KELM 161727Z 1618/1718 VRB03KT P6SM OVC013 TEMPO 1618/1622 4SM -SHRA OVC007 FM162200 VRB04KT P6SM BKN026 FM170900 00000KT 2SM BR OVC003 FM171330 00000KT P6SM SCT035

Jun-16@
18:00 UTC

Jun-16 @ 18:00 UTC

Jun-16@
22:00 UTC

Jun-16 @ 22:00 UTC

KELM 161727Z 1618/1718 VRB03KT P6SM OVC013
Wind
  • Variable at 3 KTS
Cloud Levels
  • Overcast at 1,300' AGL

Jun-16@
18:00 UTC

Jun-16 @ 18:00 UTC

Jun-16@
22:00 UTC

Jun-16 @ 22:00 UTC

TEMPO 1618/1622 4SM -SHRA OVC007

Temporary

Temporary Changes expected for less than half the time period

Conditions
Light Rain
Cloud Levels
  • Overcast at 700' AGL

Jun-16@
22:00 UTC

Jun-16 @ 22:00 UTC

Jun-17@
09:00 UTC

Jun-17 @ 09:00 UTC

FM162200 VRB04KT P6SM BKN026

From

From Standard forecast or significant change

Wind
  • Variable at 4 KTS
Cloud Levels
  • Broken at 2,600' AGL

Jun-17@
09:00 UTC

Jun-17 @ 09:00 UTC

Jun-17@
13:30 UTC

Jun-17 @ 13:30 UTC

FM170900 00000KT 2SM BR OVC003

From

From Standard forecast or significant change

Conditions
Mist
Cloud Levels
  • Overcast at 300' AGL

Jun-17@
13:30 UTC

Jun-17 @ 13:30 UTC

Jun-17@
18:00 UTC

Jun-17 @ 18:00 UTC

FM171330 00000KT P6SM SCT035

From

From Standard forecast or significant change

Cloud Levels
  • Scattered at 3,500' AGL